4XCWR LLHZ-LLHA
Flight info
| Callsign | 4XCWR |
|---|---|
| Flight time | 0h 30m |
| Altitude | 800 |
| Route | CVFR |
| Aircraft | C172/L-S/C |
Departure
| Time | 2026-04-25 06:36 |
|---|---|
| Airport | Herzliya Airport (LLHZ) |
Arrival
| Time | 2026-04-25 07:06 |
|---|---|
| Airport | Uri Michaeli Haifa International Airport (LLHA) |
| Time | Latitude | Longitude | Altitude | Speed | Heading |
|---|---|---|---|---|---|
| 2026-04-25 06:22 | 32.17909 | 34.83686 | 117 ft | 0 kts | 290° |
| 2026-04-25 06:32 | 32.17917 | 34.83673 | 115 ft | 4 kts | 352° |
| 2026-04-25 06:32 | 32.17928 | 34.83683 | 116 ft | 4 kts | 93° |
| 2026-04-25 06:32 | 32.17922 | 34.83701 | 117 ft | 0 kts | 110° |
| 2026-04-25 06:33 | 32.17916 | 34.83723 | 118 ft | 12 kts | 110° |
| 2026-04-25 06:33 | 32.17914 | 34.83729 | 118 ft | 0 kts | 111° |
| 2026-04-25 06:33 | 32.17908 | 34.83750 | 119 ft | 10 kts | 111° |
| 2026-04-25 06:33 | 32.17880 | 34.83848 | 122 ft | 6 kts | 95° |
| 2026-04-25 06:34 | 32.17914 | 34.83856 | 124 ft | 11 kts | 301° |
| 2026-04-25 06:34 | 32.17917 | 34.83846 | 125 ft | 0 kts | 288° |
| 2026-04-25 06:34 | 32.17975 | 34.83634 | 113 ft | 58 kts | 289° |
| 2026-04-25 06:35 | 32.18144 | 34.83061 | 211 ft | 80 kts | 288° |
| 2026-04-25 06:35 | 32.18457 | 34.82783 | 470 ft | 68 kts | 10° |
| 2026-04-25 06:35 | 32.18998 | 34.82896 | 541 ft | 89 kts | 9° |
| 2026-04-25 06:35 | 32.19349 | 34.83441 | 599 ft | 100 kts | 65° |
| 2026-04-25 06:36 | 32.19644 | 34.84236 | 635 ft | 110 kts | 69° |
| 2026-04-25 06:36 | 32.19924 | 34.85110 | 681 ft | 106 kts | 71° |
| 2026-04-25 06:36 | 32.20165 | 34.85908 | 852 ft | 105 kts | 72° |
| 2026-04-25 06:36 | 32.20433 | 34.86783 | 802 ft | 115 kts | 65° |
| 2026-04-25 06:37 | 32.21033 | 34.87347 | 880 ft | 113 kts | 33° |
| 2026-04-25 06:37 | 32.21712 | 34.87824 | 918 ft | 115 kts | 31° |
| 2026-04-25 06:37 | 32.22436 | 34.88169 | 914 ft | 110 kts | 14° |
| 2026-04-25 06:37 | 32.23164 | 34.88361 | 956 ft | 104 kts | 15° |
| 2026-04-25 06:38 | 32.23859 | 34.88550 | 1034 ft | 102 kts | 15° |
| 2026-04-25 06:38 | 32.24558 | 34.88734 | 1091 ft | 104 kts | 14° |
| 2026-04-25 06:38 | 32.25237 | 34.88913 | 1195 ft | 100 kts | 17° |
| 2026-04-25 06:38 | 32.25960 | 34.89139 | 1158 ft | 107 kts | 15° |
| 2026-04-25 06:39 | 32.26666 | 34.89299 | 1250 ft | 101 kts | 13° |
| 2026-04-25 06:39 | 32.27370 | 34.89410 | 1241 ft | 110 kts | 10° |
| 2026-04-25 06:39 | 32.28087 | 34.89529 | 1396 ft | 101 kts | 11° |
| 2026-04-25 06:39 | 32.28784 | 34.89651 | 1535 ft | 98 kts | 11° |
| 2026-04-25 06:40 | 32.29448 | 34.89777 | 1651 ft | 100 kts | 12° |
| 2026-04-25 06:40 | 32.30158 | 34.89905 | 1465 ft | 116 kts | 12° |
| 2026-04-25 06:40 | 32.30899 | 34.90038 | 1482 ft | 99 kts | 12° |
| 2026-04-25 06:40 | 32.31588 | 34.90146 | 1431 ft | 104 kts | 11° |
| 2026-04-25 06:41 | 32.32339 | 34.90289 | 1369 ft | 108 kts | 13° |
| 2026-04-25 06:41 | 32.33080 | 34.90454 | 1412 ft | 108 kts | 13° |
| 2026-04-25 06:41 | 32.33772 | 34.90582 | 1465 ft | 95 kts | 8° |
| 2026-04-25 06:41 | 32.34427 | 34.90629 | 1499 ft | 94 kts | 7° |
| 2026-04-25 06:42 | 32.35040 | 34.90685 | 1620 ft | 87 kts | 10° |
| 2026-04-25 06:42 | 32.35723 | 34.90795 | 1430 ft | 108 kts | 10° |
| 2026-04-25 06:42 | 32.36468 | 34.90879 | 1367 ft | 106 kts | 4° |
| 2026-04-25 06:42 | 32.37206 | 34.90820 | 1418 ft | 103 kts | 354° |
| 2026-04-25 06:43 | 32.37665 | 34.90729 | 1382 ft | 100 kts | 353° |
| 2026-04-25 06:43 | 32.38053 | 34.90605 | 1360 ft | 101 kts | 346° |
| 2026-04-25 06:43 | 32.38734 | 34.90422 | 1334 ft | 96 kts | 352° |
| 2026-04-25 06:43 | 32.39395 | 34.90362 | 1383 ft | 96 kts | 1° |
| 2026-04-25 06:44 | 32.39954 | 34.90367 | 1441 ft | 100 kts | 5° |
| 2026-04-25 06:44 | 32.40673 | 34.90336 | 1496 ft | 101 kts | 1° |
| 2026-04-25 06:44 | 32.41380 | 34.90380 | 1559 ft | 103 kts | 12° |
| 2026-04-25 06:44 | 32.42068 | 34.90555 | 1649 ft | 101 kts | 14° |
| 2026-04-25 06:45 | 32.42788 | 34.90666 | 1685 ft | 107 kts | 8° |
| 2026-04-25 06:45 | 32.43518 | 34.90753 | 1755 ft | 105 kts | 10° |
| 2026-04-25 06:45 | 32.44201 | 34.90836 | 1900 ft | 101 kts | 9° |
| 2026-04-25 06:45 | 32.44928 | 34.90930 | 1786 ft | 109 kts | 10° |
| 2026-04-25 06:46 | 32.45644 | 34.91059 | 1750 ft | 101 kts | 15° |
| 2026-04-25 06:46 | 32.46297 | 34.91249 | 1718 ft | 96 kts | 19° |
| 2026-04-25 06:46 | 32.46941 | 34.91442 | 1705 ft | 93 kts | 18° |
| 2026-04-25 06:46 | 32.47616 | 34.91663 | 1519 ft | 104 kts | 19° |
| 2026-04-25 06:47 | 32.48276 | 34.91905 | 1522 ft | 95 kts | 20° |
| 2026-04-25 06:47 | 32.48892 | 34.92137 | 1450 ft | 90 kts | 22° |
| 2026-04-25 06:47 | 32.49458 | 34.92367 | 1504 ft | 82 kts | 21° |
| 2026-04-25 06:47 | 32.49998 | 34.92574 | 1546 ft | 82 kts | 19° |
| 2026-04-25 06:48 | 32.50575 | 34.92739 | 1541 ft | 83 kts | 15° |
| 2026-04-25 06:48 | 32.51096 | 34.92791 | 1550 ft | 78 kts | 358° |
| 2026-04-25 06:48 | 32.51596 | 34.92734 | 1670 ft | 69 kts | 358° |
| 2026-04-25 06:48 | 32.52076 | 34.92682 | 1618 ft | 73 kts | 0° |
| 2026-04-25 06:49 | 32.52629 | 34.92640 | 1654 ft | 79 kts | 1° |
| 2026-04-25 06:49 | 32.53170 | 34.92657 | 1711 ft | 83 kts | 0° |
| 2026-04-25 06:49 | 32.53792 | 34.92655 | 1746 ft | 85 kts | 15° |
| 2026-04-25 06:49 | 32.54324 | 34.92806 | 1892 ft | 75 kts | 18° |
| 2026-04-25 06:50 | 32.54824 | 34.92926 | 2035 ft | 73 kts | 18° |
| 2026-04-25 06:50 | 32.55379 | 34.93100 | 1965 ft | 92 kts | 22° |
| 2026-04-25 06:50 | 32.55996 | 34.93320 | 2088 ft | 88 kts | 23° |
| 2026-04-25 06:50 | 32.56603 | 34.93507 | 1836 ft | 113 kts | 17° |
| 2026-04-25 06:51 | 32.57273 | 34.93769 | 2035 ft | 94 kts | 28° |
| 2026-04-25 06:51 | 32.57865 | 34.94076 | 2046 ft | 96 kts | 28° |
| 2026-04-25 06:51 | 32.58483 | 34.94380 | 2136 ft | 85 kts | 25° |
| 2026-04-25 06:51 | 32.59096 | 34.94652 | 2008 ft | 103 kts | 27° |
| 2026-04-25 06:52 | 32.59756 | 34.94941 | 2176 ft | 101 kts | 23° |
| 2026-04-25 06:52 | 32.60445 | 34.95144 | 2317 ft | 103 kts | 17° |
| 2026-04-25 06:52 | 32.61190 | 34.95343 | 2298 ft | 118 kts | 20° |
| 2026-04-25 06:52 | 32.61994 | 34.95628 | 2362 ft | 119 kts | 21° |
| 2026-04-25 06:53 | 32.62714 | 34.95774 | 2570 ft | 114 kts | 11° |
| 2026-04-25 06:53 | 32.63508 | 34.95883 | 2695 ft | 115 kts | 14° |
| 2026-04-25 06:53 | 32.64290 | 34.95976 | 2884 ft | 108 kts | 11° |
| 2026-04-25 06:53 | 32.65076 | 34.96049 | 2952 ft | 115 kts | 11° |
| 2026-04-25 06:54 | 32.65870 | 34.96141 | 3037 ft | 117 kts | 10° |
| 2026-04-25 06:54 | 32.66683 | 34.96220 | 3067 ft | 121 kts | 11° |
| 2026-04-25 06:54 | 32.67519 | 34.96312 | 3031 ft | 121 kts | 13° |
| 2026-04-25 06:54 | 32.68358 | 34.96412 | 3006 ft | 121 kts | 11° |
| 2026-04-25 06:55 | 32.69182 | 34.96489 | 3007 ft | 119 kts | 11° |
| 2026-04-25 06:55 | 32.70026 | 34.96565 | 2890 ft | 123 kts | 11° |
| 2026-04-25 06:55 | 32.70874 | 34.96648 | 2812 ft | 121 kts | 11° |
| 2026-04-25 06:55 | 32.71714 | 34.96598 | 2769 ft | 127 kts | 345° |
| 2026-04-25 06:56 | 32.72437 | 34.96041 | 2901 ft | 122 kts | 326° |
| 2026-04-25 06:56 | 32.73090 | 34.95370 | 2975 ft | 126 kts | 324° |
| 2026-04-25 06:56 | 32.73780 | 34.94703 | 3095 ft | 129 kts | 325° |
| 2026-04-25 06:56 | 32.74452 | 34.94031 | 3207 ft | 117 kts | 324° |
| 2026-04-25 06:57 | 32.75237 | 34.93798 | 3053 ft | 124 kts | 2° |
| 2026-04-25 06:57 | 32.76061 | 34.93760 | 2648 ft | 113 kts | 8° |
| 2026-04-25 06:57 | 32.76827 | 34.93771 | 2227 ft | 109 kts | 8° |
| 2026-04-25 06:57 | 32.77549 | 34.93812 | 1859 ft | 100 kts | 5° |
| 2026-04-25 06:58 | 32.78203 | 34.93892 | 1572 ft | 93 kts | 8° |
| 2026-04-25 06:58 | 32.78854 | 34.93971 | 1396 ft | 93 kts | 7° |
| 2026-04-25 06:58 | 32.79519 | 34.94084 | 1380 ft | 101 kts | 11° |
| 2026-04-25 06:58 | 32.80219 | 34.94192 | 1483 ft | 103 kts | 8° |
| 2026-04-25 06:59 | 32.80930 | 34.94345 | 1561 ft | 106 kts | 24° |
| 2026-04-25 06:59 | 32.81665 | 34.94643 | 1502 ft | 112 kts | 7° |
| 2026-04-25 06:59 | 32.82330 | 34.95041 | 1558 ft | 110 kts | 35° |
| 2026-04-25 06:59 | 32.82973 | 34.95531 | 1543 ft | 116 kts | 32° |
| 2026-04-25 07:00 | 32.83429 | 34.96203 | 1660 ft | 108 kts | 64° |
| 2026-04-25 07:00 | 32.83732 | 34.97030 | 1674 ft | 111 kts | 69° |
| 2026-04-25 07:00 | 32.84000 | 34.97918 | 1591 ft | 117 kts | 73° |
| 2026-04-25 07:00 | 32.84171 | 34.98806 | 1289 ft | 107 kts | 78° |
| 2026-04-25 07:01 | 32.84291 | 34.99587 | 1163 ft | 88 kts | 84° |
| 2026-04-25 07:01 | 32.84316 | 35.00323 | 1008 ft | 94 kts | 88° |
| 2026-04-25 07:01 | 32.84311 | 35.01149 | 1057 ft | 102 kts | 91° |
| 2026-04-25 07:01 | 32.84277 | 35.01987 | 1183 ft | 102 kts | 90° |
| 2026-04-25 07:02 | 32.84148 | 35.02786 | 1368 ft | 96 kts | 108° |
| 2026-04-25 07:02 | 32.83948 | 35.03625 | 1277 ft | 113 kts | 100° |
| 2026-04-25 07:02 | 32.83678 | 35.04516 | 1198 ft | 120 kts | 111° |
| 2026-04-25 07:02 | 32.83231 | 35.05240 | 1400 ft | 109 kts | 138° |
| 2026-04-25 07:03 | 32.82606 | 35.05796 | 1501 ft | 115 kts | 142° |
| 2026-04-25 07:03 | 32.81958 | 35.06331 | 1605 ft | 111 kts | 145° |
| 2026-04-25 07:03 | 32.81287 | 35.06852 | 1442 ft | 118 kts | 146° |
| 2026-04-25 07:03 | 32.80640 | 35.07336 | 1288 ft | 112 kts | 149° |
| 2026-04-25 07:04 | 32.79931 | 35.07827 | 1240 ft | 119 kts | 154° |
| 2026-04-25 07:04 | 32.79140 | 35.07822 | 1170 ft | 122 kts | 200° |
| 2026-04-25 07:04 | 32.78467 | 35.07239 | 1048 ft | 118 kts | 224° |
| 2026-04-25 07:04 | 32.77947 | 35.06488 | 976 ft | 109 kts | 257° |
| 2026-04-25 07:05 | 32.78197 | 35.05735 | 712 ft | 105 kts | 304° |
| 2026-04-25 07:05 | 32.78668 | 35.05225 | 516 ft | 90 kts | 331° |
| 2026-04-25 07:05 | 32.79146 | 35.04970 | 391 ft | 63 kts | 339° |
| 2026-04-25 07:05 | 32.79586 | 35.04858 | 277 ft | 68 kts | 352° |
| 2026-04-25 07:06 | 32.80059 | 35.04768 | 151 ft | 68 kts | 346° |
| 2026-04-25 07:06 | 32.80479 | 35.04606 | 48 ft | 61 kts | 339° |
| 2026-04-25 07:06 | 32.80819 | 35.04463 | 21 ft | 42 kts | 338° |
| 2026-04-25 07:06 | 32.81205 | 35.04291 | 33 ft | 75 kts | 341° |
| 2026-04-25 07:07 | 32.81729 | 35.04051 | 169 ft | 85 kts | 339° |
| 2026-04-25 07:07 | 32.82291 | 35.03835 | 426 ft | 79 kts | 353° |
| 2026-04-25 07:07 | 32.82817 | 35.04132 | 531 ft | 93 kts | 31° |
| 2026-04-25 07:07 | 32.83282 | 35.04672 | 635 ft | 98 kts | 80° |
| 2026-04-25 07:08 | 32.82882 | 35.05390 | 596 ft | 112 kts | 140° |
| 2026-04-25 07:08 | 32.82291 | 35.05942 | 684 ft | 108 kts | 143° |
| 2026-04-25 07:08 | 32.81670 | 35.06445 | 807 ft | 110 kts | 149° |
| 2026-04-25 07:08 | 32.81009 | 35.06919 | 895 ft | 113 kts | 148° |
| 2026-04-25 07:09 | 32.80316 | 35.07412 | 921 ft | 119 kts | 149° |
| 2026-04-25 07:09 | 32.79610 | 35.07805 | 928 ft | 105 kts | 171° |
| 2026-04-25 07:09 | 32.78899 | 35.07650 | 898 ft | 106 kts | 199° |
| 2026-04-25 07:09 | 32.78204 | 35.07317 | 860 ft | 110 kts | 208° |
| 2026-04-25 07:10 | 32.77932 | 35.06559 | 788 ft | 114 kts | 276° |
| 2026-04-25 07:10 | 32.78102 | 35.05715 | 627 ft | 92 kts | 310° |
| 2026-04-25 07:10 | 32.78560 | 35.05292 | 388 ft | 77 kts | 335° |
| 2026-04-25 07:10 | 32.78995 | 35.05078 | 306 ft | 67 kts | 344° |
| 2026-04-25 07:11 | 32.79411 | 35.04933 | 246 ft | 57 kts | 348° |
| 2026-04-25 07:11 | 32.79775 | 35.04834 | 184 ft | 51 kts | 351° |
| 2026-04-25 07:11 | 32.80130 | 35.04721 | 128 ft | 53 kts | 343° |
| 2026-04-25 07:11 | 32.80472 | 35.04606 | 45 ft | 49 kts | 341° |
| 2026-04-25 07:12 | 32.80769 | 35.04478 | 21 ft | 40 kts | 340° |
| 2026-04-25 07:12 | 32.81632 | 35.04090 | 355 ft | 66 kts | 339° |
| 2026-04-25 07:12 | 32.82071 | 35.03866 | 580 ft | 70 kts | 341° |
| 2026-04-25 07:13 | 32.82566 | 35.03996 | 692 ft | 89 kts | 25° |
| 2026-04-25 07:13 | 32.83135 | 35.04389 | 718 ft | 101 kts | 34° |
| 2026-04-25 07:13 | 32.83217 | 35.05178 | 716 ft | 117 kts | 121° |
| 2026-04-25 07:13 | 32.82621 | 35.05862 | 778 ft | 120 kts | 143° |
| 2026-04-25 07:14 | 32.81936 | 35.06393 | 889 ft | 118 kts | 149° |
| 2026-04-25 07:14 | 32.81208 | 35.06902 | 868 ft | 122 kts | 151° |
| 2026-04-25 07:14 | 32.80458 | 35.07372 | 883 ft | 122 kts | 153° |
| 2026-04-25 07:14 | 32.79692 | 35.07813 | 875 ft | 123 kts | 158° |
| 2026-04-25 07:15 | 32.78898 | 35.07754 | 927 ft | 118 kts | 208° |
| 2026-04-25 07:15 | 32.78181 | 35.07226 | 848 ft | 122 kts | 218° |
| 2026-04-25 07:15 | 32.77653 | 35.06480 | 836 ft | 118 kts | 256° |
| 2026-04-25 07:15 | 32.77892 | 35.05617 | 749 ft | 119 kts | 320° |
| 2026-04-25 07:16 | 32.78560 | 35.05189 | 566 ft | 85 kts | 342° |
| 2026-04-25 07:16 | 32.79044 | 35.05024 | 305 ft | 66 kts | 346° |
| 2026-04-25 07:16 | 32.79488 | 35.04925 | 223 ft | 64 kts | 355° |
| 2026-04-25 07:16 | 32.79924 | 35.04831 | 155 ft | 64 kts | 342° |
| 2026-04-25 07:17 | 32.80312 | 35.04679 | 75 ft | 57 kts | 341° |
| 2026-04-25 07:17 | 32.80659 | 35.04537 | 25 ft | 50 kts | 342° |
| 2026-04-25 07:17 | 32.80982 | 35.04385 | 41 ft | 61 kts | 341° |
| 2026-04-25 07:17 | 32.81452 | 35.04179 | 152 ft | 79 kts | 341° |
| 2026-04-25 07:18 | 32.82000 | 35.03975 | 355 ft | 84 kts | 343° |
| 2026-04-25 07:18 | 32.82582 | 35.03765 | 507 ft | 88 kts | 12° |
| 2026-04-25 07:18 | 32.83087 | 35.04191 | 668 ft | 93 kts | 41° |
| 2026-04-25 07:18 | 32.83338 | 35.04862 | 764 ft | 95 kts | 120° |
| 2026-04-25 07:19 | 32.82838 | 35.05446 | 880 ft | 106 kts | 142° |
| 2026-04-25 07:19 | 32.82165 | 35.06072 | 619 ft | 134 kts | 141° |
| 2026-04-25 07:19 | 32.81464 | 35.06685 | 786 ft | 119 kts | 145° |
| 2026-04-25 07:19 | 32.80769 | 35.07156 | 930 ft | 112 kts | 160° |
| 2026-04-25 07:20 | 32.80292 | 35.07356 | 1047 ft | 110 kts | 162° |
| 2026-04-25 07:20 | 32.79277 | 35.07501 | 1022 ft | 121 kts | 189° |
| 2026-04-25 07:20 | 32.78468 | 35.07282 | 1060 ft | 118 kts | 197° |
| 2026-04-25 07:20 | 32.77829 | 35.06738 | 1113 ft | 115 kts | 235° |
| 2026-04-25 07:21 | 32.77593 | 35.06224 | 1286 ft | 106 kts | 263° |
| 2026-04-25 07:21 | 32.77999 | 35.05433 | 947 ft | 118 kts | 335° |
| 2026-04-25 07:21 | 32.78660 | 35.05191 | 584 ft | 82 kts | 346° |
| 2026-04-25 07:21 | 32.79168 | 35.05067 | 417 ft | 70 kts | 348° |
| 2026-04-25 07:22 | 32.79614 | 35.04929 | 271 ft | 69 kts | 353° |
| 2026-04-25 07:22 | 32.80058 | 35.04790 | 118 ft | 57 kts | 345° |
| 2026-04-25 07:22 | 32.80400 | 35.04642 | 45 ft | 47 kts | 342° |
| 2026-04-25 07:22 | 32.80678 | 35.04523 | 21 ft | 32 kts | 340° |
| 2026-04-25 07:23 | 32.80833 | 35.04451 | 22 ft | 24 kts | 337° |
| 2026-04-25 07:23 | 32.81002 | 35.04373 | 22 ft | 25 kts | 342° |
| 2026-04-25 07:23 | 32.81145 | 35.04318 | 22 ft | 15 kts | 335° |
| 2026-04-25 07:23 | 32.81156 | 35.04233 | 21 ft | 11 kts | 250° |
| 2026-04-25 07:24 | 32.81127 | 35.04217 | 21 ft | 4 kts | 84° |
| 2026-04-25 07:24 | 32.81133 | 35.04233 | 21 ft | 0 kts | 28° |
| 2026-04-25 07:24 | 32.81137 | 35.04233 | 21 ft | 0 kts | 347° |